sensor_id;sensor_type;location;lat;lon;timestamp;P1;durP1;ratioP1;P2;durP2;ratioP2
3133;SDS011;1577;49.912;10.924;2024-03-08T00:00:58;30.20;;;15.55;;
3133;SDS011;1577;49.912;10.924;2024-03-08T00:03:24;26.07;;;14.80;;
3133;SDS011;1577;49.912;10.924;2024-03-08T00:05:49;25.47;;;13.87;;
3133;SDS011;1577;49.912;10.924;2024-03-08T00:08:17;24.75;;;14.25;;
3133;SDS011;1577;49.912;10.924;2024-03-08T00:10:43;25.63;;;14.97;;
3133;SDS011;1577;49.912;10.924;2024-03-08T00:13:09;24.67;;;15.53;;
3133;SDS011;1577;49.912;10.924;2024-03-08T00:15:34;30.33;;;15.17;;
3133;SDS011;1577;49.912;10.924;2024-03-08T00:18:00;26.35;;;14.77;;
3133;SDS011;1577;49.912;10.924;2024-03-08T00:20:26;25.77;;;15.00;;
3133;SDS011;1577;49.912;10.924;2024-03-08T00:22:52;30.20;;;16.73;;
3133;SDS011;1577;49.912;10.924;2024-03-08T00:25:18;23.40;;;15.43;;
3133;SDS011;1577;49.912;10.924;2024-03-08T00:27:43;24.87;;;15.30;;
3133;SDS011;1577;49.912;10.924;2024-03-08T00:30:09;25.67;;;14.80;;
3133;SDS011;1577;49.912;10.924;2024-03-08T00:32:38;28.85;;;15.32;;
3133;SDS011;1577;49.912;10.924;2024-03-08T00:35:03;29.27;;;14.10;;
3133;SDS011;1577;49.912;10.924;2024-03-08T00:37:29;28.87;;;15.83;;
3133;SDS011;1577;49.912;10.924;2024-03-08T00:39:55;31.60;;;16.02;;
3133;SDS011;1577;49.912;10.924;2024-03-08T00:42:21;27.93;;;15.67;;
3133;SDS011;1577;49.912;10.924;2024-03-08T00:44:50;25.53;;;14.10;;
3133;SDS011;1577;49.912;10.924;2024-03-08T00:47:16;25.23;;;14.93;;
3133;SDS011;1577;49.912;10.924;2024-03-08T00:49:42;26.50;;;15.10;;
3133;SDS011;1577;49.912;10.924;2024-03-08T00:52:07;24.23;;;14.43;;
3133;SDS011;1577;49.912;10.924;2024-03-08T00:54:36;27.00;;;15.67;;
3133;SDS011;1577;49.912;10.924;2024-03-08T00:57:02;32.03;;;16.30;;
3133;SDS011;1577;49.912;10.924;2024-03-08T00:59:31;24.80;;;15.07;;
3133;SDS011;1577;49.912;10.924;2024-03-08T01:02:00;30.63;;;16.15;;
3133;SDS011;1577;49.912;10.924;2024-03-08T01:04:26;26.23;;;15.98;;
3133;SDS011;1577;49.912;10.924;2024-03-08T01:06:58;24.40;;;15.10;;
3133;SDS011;1577;49.912;10.924;2024-03-08T01:09:26;26.65;;;15.35;;
3133;SDS011;1577;49.912;10.924;2024-03-08T01:11:53;28.27;;;15.82;;
3133;SDS011;1577;49.912;10.924;2024-03-08T01:14:23;32.88;;;17.15;;
3133;SDS011;1577;49.912;10.924;2024-03-08T01:16:50;27.88;;;15.60;;
3133;SDS011;1577;49.912;10.924;2024-03-08T01:19:16;30.20;;;15.73;;
3133;SDS011;1577;49.912;10.924;2024-03-08T01:21:42;24.45;;;14.30;;
3133;SDS011;1577;49.912;10.924;2024-03-08T01:24:11;27.77;;;15.57;;
3133;SDS011;1577;49.912;10.924;2024-03-08T01:26:36;29.53;;;16.60;;
3133;SDS011;1577;49.912;10.924;2024-03-08T01:29:03;26.15;;;15.70;;
3133;SDS011;1577;49.912;10.924;2024-03-08T01:31:32;23.07;;;14.30;;
3133;SDS011;1577;49.912;10.924;2024-03-08T01:33:58;26.65;;;15.93;;
3133;SDS011;1577;49.912;10.924;2024-03-08T01:36:24;28.57;;;16.97;;
3133;SDS011;1577;49.912;10.924;2024-03-08T01:38:50;28.97;;;16.03;;
3133;SDS011;1577;49.912;10.924;2024-03-08T01:41:15;27.00;;;14.88;;
3133;SDS011;1577;49.912;10.924;2024-03-08T01:43:42;26.60;;;14.95;;
3133;SDS011;1577;49.912;10.924;2024-03-08T01:46:09;28.80;;;15.68;;
3133;SDS011;1577;49.912;10.924;2024-03-08T01:48:37;28.25;;;15.73;;
3133;SDS011;1577;49.912;10.924;2024-03-08T01:51:03;30.00;;;16.02;;
3133;SDS011;1577;49.912;10.924;2024-03-08T01:53:31;28.35;;;15.77;;
3133;SDS011;1577;49.912;10.924;2024-03-08T01:55:57;24.85;;;16.02;;
3133;SDS011;1577;49.912;10.924;2024-03-08T01:58:24;28.25;;;16.00;;
3133;SDS011;1577;49.912;10.924;2024-03-08T02:00:53;30.88;;;17.27;;
3133;SDS011;1577;49.912;10.924;2024-03-08T02:03:19;30.75;;;16.40;;
3133;SDS011;1577;49.912;10.924;2024-03-08T02:05:46;35.50;;;17.52;;
3133;SDS011;1577;49.912;10.924;2024-03-08T02:08:11;23.73;;;14.33;;
3133;SDS011;1577;49.912;10.924;2024-03-08T02:10:39;26.20;;;16.20;;
3133;SDS011;1577;49.912;10.924;2024-03-08T02:13:09;27.15;;;15.18;;
3133;SDS011;1577;49.912;10.924;2024-03-08T02:18:27;24.50;;;14.02;;
3133;SDS011;1577;49.912;10.924;2024-03-08T02:20:58;30.13;;;16.95;;
3133;SDS011;1577;49.912;10.924;2024-03-08T02:23:25;28.27;;;16.17;;
3133;SDS011;1577;49.912;10.924;2024-03-08T02:25:51;27.08;;;13.98;;
3133;SDS011;1577;49.912;10.924;2024-03-08T02:28:21;31.63;;;14.70;;
3133;SDS011;1577;49.912;10.924;2024-03-08T02:30:48;33.78;;;16.95;;
3133;SDS011;1577;49.912;10.924;2024-03-08T02:33:15;28.27;;;16.55;;
3133;SDS011;1577;49.912;10.924;2024-03-08T02:35:42;28.80;;;16.40;;
3133;SDS011;1577;49.912;10.924;2024-03-08T02:38:12;29.45;;;16.45;;
3133;SDS011;1577;49.912;10.924;2024-03-08T02:40:38;30.27;;;15.68;;
3133;SDS011;1577;49.912;10.924;2024-03-08T02:43:05;25.10;;;15.50;;
3133;SDS011;1577;49.912;10.924;2024-03-08T02:45:30;31.13;;;17.67;;
3133;SDS011;1577;49.912;10.924;2024-03-08T02:47:56;25.43;;;17.00;;
3133;SDS011;1577;49.912;10.924;2024-03-08T02:50:22;20.27;;;14.13;;
3133;SDS011;1577;49.912;10.924;2024-03-08T02:52:50;31.40;;;17.70;;
3133;SDS011;1577;49.912;10.924;2024-03-08T02:55:15;30.77;;;18.58;;
3133;SDS011;1577;49.912;10.924;2024-03-08T02:57:41;29.43;;;17.57;;
3133;SDS011;1577;49.912;10.924;2024-03-08T03:00:08;30.65;;;17.08;;
3133;SDS011;1577;49.912;10.924;2024-03-08T03:02:35;33.67;;;17.92;;
3133;SDS011;1577;49.912;10.924;2024-03-08T03:05:02;33.92;;;18.50;;
3133;SDS011;1577;49.912;10.924;2024-03-08T03:07:31;31.88;;;17.33;;
3133;SDS011;1577;49.912;10.924;2024-03-08T03:10:03;38.15;;;18.00;;
3133;SDS011;1577;49.912;10.924;2024-03-08T03:12:29;36.47;;;18.60;;
3133;SDS011;1577;49.912;10.924;2024-03-08T03:14:55;30.50;;;19.00;;
3133;SDS011;1577;49.912;10.924;2024-03-08T03:17:22;35.10;;;18.90;;
3133;SDS011;1577;49.912;10.924;2024-03-08T03:19:52;35.63;;;18.05;;
3133;SDS011;1577;49.912;10.924;2024-03-08T03:22:18;34.20;;;19.83;;
3133;SDS011;1577;49.912;10.924;2024-03-08T03:24:45;35.63;;;18.90;;
3133;SDS011;1577;49.912;10.924;2024-03-08T03:27:16;34.83;;;19.88;;
3133;SDS011;1577;49.912;10.924;2024-03-08T03:29:43;35.03;;;19.30;;
3133;SDS011;1577;49.912;10.924;2024-03-08T03:32:12;33.10;;;19.13;;
3133;SDS011;1577;49.912;10.924;2024-03-08T03:34:38;32.80;;;18.83;;
3133;SDS011;1577;49.912;10.924;2024-03-08T03:37:09;32.63;;;17.23;;
3133;SDS011;1577;49.912;10.924;2024-03-08T03:39:37;31.33;;;17.15;;
3133;SDS011;1577;49.912;10.924;2024-03-08T03:42:18;30.40;;;17.77;;
3133;SDS011;1577;49.912;10.924;2024-03-08T03:44:45;32.53;;;19.65;;
3133;SDS011;1577;49.912;10.924;2024-03-08T03:47:13;35.90;;;20.25;;
3133;SDS011;1577;49.912;10.924;2024-03-08T03:49:43;32.72;;;19.63;;
3133;SDS011;1577;49.912;10.924;2024-03-08T03:52:09;31.50;;;18.98;;
3133;SDS011;1577;49.912;10.924;2024-03-08T03:54:35;35.17;;;18.30;;
3133;SDS011;1577;49.912;10.924;2024-03-08T03:57:01;34.38;;;19.17;;
3133;SDS011;1577;49.912;10.924;2024-03-08T03:59:27;30.05;;;16.42;;
3133;SDS011;1577;49.912;10.924;2024-03-08T04:01:53;30.30;;;16.83;;
3133;SDS011;1577;49.912;10.924;2024-03-08T04:04:19;32.65;;;18.63;;
3133;SDS011;1577;49.912;10.924;2024-03-08T04:06:45;34.80;;;18.17;;
3133;SDS011;1577;49.912;10.924;2024-03-08T04:09:14;34.77;;;19.20;;
3133;SDS011;1577;49.912;10.924;2024-03-08T04:11:39;30.90;;;17.25;;
3133;SDS011;1577;49.912;10.924;2024-03-08T04:14:05;29.30;;;17.20;;
3133;SDS011;1577;49.912;10.924;2024-03-08T04:16:31;35.17;;;19.30;;
3133;SDS011;1577;49.912;10.924;2024-03-08T04:19:00;36.43;;;18.73;;
3133;SDS011;1577;49.912;10.924;2024-03-08T04:21:29;36.55;;;19.67;;
3133;SDS011;1577;49.912;10.924;2024-03-08T04:23:55;33.22;;;18.88;;
3133;SDS011;1577;49.912;10.924;2024-03-08T04:26:21;31.23;;;17.67;;
3133;SDS011;1577;49.912;10.924;2024-03-08T04:28:47;33.60;;;19.20;;
3133;SDS011;1577;49.912;10.924;2024-03-08T04:31:12;33.17;;;17.40;;
3133;SDS011;1577;49.912;10.924;2024-03-08T04:33:38;30.93;;;18.17;;
3133;SDS011;1577;49.912;10.924;2024-03-08T04:36:04;35.57;;;19.50;;
3133;SDS011;1577;49.912;10.924;2024-03-08T04:38:30;33.90;;;18.00;;
3133;SDS011;1577;49.912;10.924;2024-03-08T04:40:56;32.55;;;18.45;;
3133;SDS011;1577;49.912;10.924;2024-03-08T04:43:23;31.92;;;18.48;;
3133;SDS011;1577;49.912;10.924;2024-03-08T04:45:51;32.80;;;18.35;;
3133;SDS011;1577;49.912;10.924;2024-03-08T04:48:18;35.08;;;18.63;;
3133;SDS011;1577;49.912;10.924;2024-03-08T04:50:46;33.00;;;18.27;;
3133;SDS011;1577;49.912;10.924;2024-03-08T04:53:12;32.80;;;18.80;;
3133;SDS011;1577;49.912;10.924;2024-03-08T04:55:37;39.27;;;19.30;;
3133;SDS011;1577;49.912;10.924;2024-03-08T04:58:03;34.00;;;18.77;;
3133;SDS011;1577;49.912;10.924;2024-03-08T05:00:31;35.30;;;18.73;;
3133;SDS011;1577;49.912;10.924;2024-03-08T05:02:57;33.42;;;18.08;;
3133;SDS011;1577;49.912;10.924;2024-03-08T05:05:23;34.03;;;19.83;;
3133;SDS011;1577;49.912;10.924;2024-03-08T05:07:49;33.50;;;17.98;;
3133;SDS011;1577;49.912;10.924;2024-03-08T05:10:15;30.90;;;18.27;;
3133;SDS011;1577;49.912;10.924;2024-03-08T05:12:42;36.80;;;20.00;;
3133;SDS011;1577;49.912;10.924;2024-03-08T05:15:09;30.65;;;18.80;;
3133;SDS011;1577;49.912;10.924;2024-03-08T05:17:37;31.63;;;18.03;;
3133;SDS011;1577;49.912;10.924;2024-03-08T05:20:05;34.22;;;18.08;;
3133;SDS011;1577;49.912;10.924;2024-03-08T05:22:33;34.72;;;19.70;;
3133;SDS011;1577;49.912;10.924;2024-03-08T05:25:01;30.90;;;17.58;;
3133;SDS011;1577;49.912;10.924;2024-03-08T05:27:27;37.97;;;17.93;;
3133;SDS011;1577;49.912;10.924;2024-03-08T05:29:53;36.17;;;18.20;;
3133;SDS011;1577;49.912;10.924;2024-03-08T05:32:19;34.63;;;20.03;;
3133;SDS011;1577;49.912;10.924;2024-03-08T05:34:45;32.92;;;18.35;;
3133;SDS011;1577;49.912;10.924;2024-03-08T05:37:10;22.33;;;13.10;;
3133;SDS011;1577;49.912;10.924;2024-03-08T05:39:36;33.07;;;18.50;;
3133;SDS011;1577;49.912;10.924;2024-03-08T05:42:02;36.30;;;18.17;;
3133;SDS011;1577;49.912;10.924;2024-03-08T05:44:27;36.27;;;17.80;;
3133;SDS011;1577;49.912;10.924;2024-03-08T05:46:56;37.78;;;19.92;;
3133;SDS011;1577;49.912;10.924;2024-03-08T05:49:21;30.63;;;18.17;;
3133;SDS011;1577;49.912;10.924;2024-03-08T05:51:47;33.40;;;17.30;;
3133;SDS011;1577;49.912;10.924;2024-03-08T05:54:13;28.90;;;14.20;;
3133;SDS011;1577;49.912;10.924;2024-03-08T05:56:39;33.77;;;18.47;;
3133;SDS011;1577;49.912;10.924;2024-03-08T05:59:08;29.13;;;16.05;;
3133;SDS011;1577;49.912;10.924;2024-03-08T06:01:34;35.73;;;17.23;;
3133;SDS011;1577;49.912;10.924;2024-03-08T06:04:01;30.30;;;17.55;;
3133;SDS011;1577;49.912;10.924;2024-03-08T06:06:28;38.28;;;19.20;;
3133;SDS011;1577;49.912;10.924;2024-03-08T06:08:53;34.63;;;17.80;;
3133;SDS011;1577;49.912;10.924;2024-03-08T06:11:21;34.15;;;16.80;;
3133;SDS011;1577;49.912;10.924;2024-03-08T06:13:47;32.83;;;17.53;;
3133;SDS011;1577;49.912;10.924;2024-03-08T06:16:13;32.10;;;16.80;;
3133;SDS011;1577;49.912;10.924;2024-03-08T06:18:39;28.50;;;15.77;;
3133;SDS011;1577;49.912;10.924;2024-03-08T06:21:04;32.00;;;15.97;;
3133;SDS011;1577;49.912;10.924;2024-03-08T06:23:31;34.30;;;17.88;;
3133;SDS011;1577;49.912;10.924;2024-03-08T06:25:57;33.13;;;16.45;;
3133;SDS011;1577;49.912;10.924;2024-03-08T06:28:23;32.33;;;17.87;;
3133;SDS011;1577;49.912;10.924;2024-03-08T06:30:48;33.43;;;17.60;;
3133;SDS011;1577;49.912;10.924;2024-03-08T06:33:16;31.92;;;15.23;;
3133;SDS011;1577;49.912;10.924;2024-03-08T06:35:42;29.30;;;16.00;;
3133;SDS011;1577;49.912;10.924;2024-03-08T06:38:07;23.13;;;10.97;;
3133;SDS011;1577;49.912;10.924;2024-03-08T06:40:33;33.57;;;18.63;;
3133;SDS011;1577;49.912;10.924;2024-03-08T06:42:59;33.30;;;16.90;;
3133;SDS011;1577;49.912;10.924;2024-03-08T06:45:24;33.17;;;17.73;;
3133;SDS011;1577;49.912;10.924;2024-03-08T06:47:50;23.38;;;11.80;;
3133;SDS011;1577;49.912;10.924;2024-03-08T06:50:16;29.50;;;17.07;;
3133;SDS011;1577;49.912;10.924;2024-03-08T06:52:42;33.20;;;16.03;;
3133;SDS011;1577;49.912;10.924;2024-03-08T06:55:09;21.10;;;11.87;;
3133;SDS011;1577;49.912;10.924;2024-03-08T06:57:38;30.23;;;17.40;;
3133;SDS011;1577;49.912;10.924;2024-03-08T07:00:08;33.93;;;17.97;;
3133;SDS011;1577;49.912;10.924;2024-03-08T07:02:43;26.53;;;16.40;;
3133;SDS011;1577;49.912;10.924;2024-03-08T07:05:11;27.80;;;15.70;;
3133;SDS011;1577;49.912;10.924;2024-03-08T07:07:36;33.07;;;16.30;;
3133;SDS011;1577;49.912;10.924;2024-03-08T07:10:02;32.67;;;16.70;;
3133;SDS011;1577;49.912;10.924;2024-03-08T07:12:29;31.23;;;17.43;;
3133;SDS011;1577;49.912;10.924;2024-03-08T07:14:55;28.50;;;15.97;;
3133;SDS011;1577;49.912;10.924;2024-03-08T07:17:20;25.43;;;15.27;;
3133;SDS011;1577;49.912;10.924;2024-03-08T07:19:46;26.73;;;14.43;;
3133;SDS011;1577;49.912;10.924;2024-03-08T07:22:12;28.90;;;16.57;;
3133;SDS011;1577;49.912;10.924;2024-03-08T07:24:37;28.87;;;16.33;;
3133;SDS011;1577;49.912;10.924;2024-03-08T07:27:29;23.13;;;13.40;;
3133;SDS011;1577;49.912;10.924;2024-03-08T07:29:55;28.90;;;15.33;;
3133;SDS011;1577;49.912;10.924;2024-03-08T07:32:22;30.53;;;17.13;;
3133;SDS011;1577;49.912;10.924;2024-03-08T07:34:50;28.07;;;14.13;;
3133;SDS011;1577;49.912;10.924;2024-03-08T07:37:17;22.33;;;14.30;;
3133;SDS011;1577;49.912;10.924;2024-03-08T07:39:44;23.10;;;12.40;;
3133;SDS011;1577;49.912;10.924;2024-03-08T07:42:09;30.00;;;16.23;;
3133;SDS011;1577;49.912;10.924;2024-03-08T07:44:37;21.17;;;12.80;;
3133;SDS011;1577;49.912;10.924;2024-03-08T07:47:03;27.60;;;15.57;;
3133;SDS011;1577;49.912;10.924;2024-03-08T07:49:29;24.90;;;14.03;;
3133;SDS011;1577;49.912;10.924;2024-03-08T07:51:55;26.43;;;16.27;;
3133;SDS011;1577;49.912;10.924;2024-03-08T07:54:21;27.53;;;15.90;;
3133;SDS011;1577;49.912;10.924;2024-03-08T07:56:47;21.30;;;13.50;;
3133;SDS011;1577;49.912;10.924;2024-03-08T07:59:12;25.67;;;16.20;;
3133;SDS011;1577;49.912;10.924;2024-03-08T08:01:38;28.90;;;15.83;;
3133;SDS011;1577;49.912;10.924;2024-03-08T08:04:04;20.83;;;14.13;;
3133;SDS011;1577;49.912;10.924;2024-03-08T08:06:30;21.77;;;12.57;;
3133;SDS011;1577;49.912;10.924;2024-03-08T08:08:59;28.27;;;16.33;;
3133;SDS011;1577;49.912;10.924;2024-03-08T08:11:26;22.30;;;15.00;;
3133;SDS011;1577;49.912;10.924;2024-03-08T08:13:55;25.30;;;16.77;;
3133;SDS011;1577;49.912;10.924;2024-03-08T08:16:24;24.00;;;14.83;;
3133;SDS011;1577;49.912;10.924;2024-03-08T08:18:50;25.13;;;15.20;;
3133;SDS011;1577;49.912;10.924;2024-03-08T08:21:17;25.13;;;14.53;;
3133;SDS011;1577;49.912;10.924;2024-03-08T08:23:43;25.23;;;15.77;;
3133;SDS011;1577;49.912;10.924;2024-03-08T08:26:10;25.03;;;15.10;;
3133;SDS011;1577;49.912;10.924;2024-03-08T08:28:36;31.63;;;17.57;;
3133;SDS011;1577;49.912;10.924;2024-03-08T08:31:01;21.07;;;13.90;;
3133;SDS011;1577;49.912;10.924;2024-03-08T08:33:29;24.10;;;15.53;;
3133;SDS011;1577;49.912;10.924;2024-03-08T08:35:54;21.43;;;15.30;;
3133;SDS011;1577;49.912;10.924;2024-03-08T08:38:21;25.90;;;15.90;;
3133;SDS011;1577;49.912;10.924;2024-03-08T08:40:48;23.83;;;14.80;;
3133;SDS011;1577;49.912;10.924;2024-03-08T08:43:14;27.53;;;16.67;;
3133;SDS011;1577;49.912;10.924;2024-03-08T08:45:40;23.77;;;15.17;;
3133;SDS011;1577;49.912;10.924;2024-03-08T08:48:07;23.90;;;15.13;;
3133;SDS011;1577;49.912;10.924;2024-03-08T08:50:35;23.43;;;15.90;;
3133;SDS011;1577;49.912;10.924;2024-03-08T08:53:01;23.20;;;15.03;;
3133;SDS011;1577;49.912;10.924;2024-03-08T08:55:28;22.33;;;14.57;;
3133;SDS011;1577;49.912;10.924;2024-03-08T08:57:55;25.00;;;15.13;;
3133;SDS011;1577;49.912;10.924;2024-03-08T09:00:21;25.70;;;15.33;;
3133;SDS011;1577;49.912;10.924;2024-03-08T09:02:51;23.53;;;14.83;;
3133;SDS011;1577;49.912;10.924;2024-03-08T09:05:20;22.97;;;15.53;;
3133;SDS011;1577;49.912;10.924;2024-03-08T09:07:46;24.00;;;15.23;;
3133;SDS011;1577;49.912;10.924;2024-03-08T09:10:12;22.03;;;13.60;;
3133;SDS011;1577;49.912;10.924;2024-03-08T09:12:39;21.03;;;13.80;;
3133;SDS011;1577;49.912;10.924;2024-03-08T09:15:05;24.20;;;14.90;;
3133;SDS011;1577;49.912;10.924;2024-03-08T09:17:38;26.40;;;14.20;;
3133;SDS011;1577;49.912;10.924;2024-03-08T09:20:08;25.20;;;15.83;;
3133;SDS011;1577;49.912;10.924;2024-03-08T09:22:35;29.63;;;15.10;;
3133;SDS011;1577;49.912;10.924;2024-03-08T09:25:01;28.03;;;15.53;;
3133;SDS011;1577;49.912;10.924;2024-03-08T09:27:30;23.73;;;14.80;;
3133;SDS011;1577;49.912;10.924;2024-03-08T09:29:55;23.07;;;12.47;;
3133;SDS011;1577;49.912;10.924;2024-03-08T09:32:21;21.70;;;15.00;;
3133;SDS011;1577;49.912;10.924;2024-03-08T09:34:47;24.37;;;15.30;;
3133;SDS011;1577;49.912;10.924;2024-03-08T09:37:13;18.90;;;13.63;;
3133;SDS011;1577;49.912;10.924;2024-03-08T09:39:39;21.23;;;13.50;;
3133;SDS011;1577;49.912;10.924;2024-03-08T09:42:04;21.23;;;14.60;;
3133;SDS011;1577;49.912;10.924;2024-03-08T09:44:31;22.37;;;14.57;;
3133;SDS011;1577;49.912;10.924;2024-03-08T09:46:57;19.67;;;12.67;;
3133;SDS011;1577;49.912;10.924;2024-03-08T09:49:24;18.87;;;11.93;;
3133;SDS011;1577;49.912;10.924;2024-03-08T09:51:49;21.67;;;14.57;;
3133;SDS011;1577;49.912;10.924;2024-03-08T09:54:16;20.03;;;14.00;;
3133;SDS011;1577;49.912;10.924;2024-03-08T09:56:42;23.07;;;14.03;;
3133;SDS011;1577;49.912;10.924;2024-03-08T09:59:10;25.70;;;15.70;;
3133;SDS011;1577;49.912;10.924;2024-03-08T10:01:50;21.30;;;13.10;;
3133;SDS011;1577;49.912;10.924;2024-03-08T10:04:17;22.23;;;14.30;;
3133;SDS011;1577;49.912;10.924;2024-03-08T10:06:44;24.00;;;14.73;;
3133;SDS011;1577;49.912;10.924;2024-03-08T10:09:12;24.87;;;14.27;;
3133;SDS011;1577;49.912;10.924;2024-03-08T10:11:38;25.77;;;15.57;;
3133;SDS011;1577;49.912;10.924;2024-03-08T10:14:05;24.50;;;15.97;;
3133;SDS011;1577;49.912;10.924;2024-03-08T10:16:32;23.87;;;15.27;;
3133;SDS011;1577;49.912;10.924;2024-03-08T10:18:59;22.53;;;14.60;;
3133;SDS011;1577;49.912;10.924;2024-03-08T10:21:25;22.63;;;13.10;;
3133;SDS011;1577;49.912;10.924;2024-03-08T10:23:52;20.23;;;12.37;;
3133;SDS011;1577;49.912;10.924;2024-03-08T10:26:18;19.17;;;12.33;;
3133;SDS011;1577;49.912;10.924;2024-03-08T10:28:49;23.13;;;14.43;;
3133;SDS011;1577;49.912;10.924;2024-03-08T10:31:16;18.97;;;10.53;;
3133;SDS011;1577;49.912;10.924;2024-03-08T10:33:42;21.70;;;13.63;;
3133;SDS011;1577;49.912;10.924;2024-03-08T10:36:09;27.47;;;13.10;;
3133;SDS011;1577;49.912;10.924;2024-03-08T10:38:36;19.90;;;12.33;;
3133;SDS011;1577;49.912;10.924;2024-03-08T10:41:05;20.00;;;12.73;;
3133;SDS011;1577;49.912;10.924;2024-03-08T10:46:20;21.53;;;12.57;;
3133;SDS011;1577;49.912;10.924;2024-03-08T10:48:55;19.70;;;12.30;;
3133;SDS011;1577;49.912;10.924;2024-03-08T10:51:27;21.20;;;11.67;;
3133;SDS011;1577;49.912;10.924;2024-03-08T10:53:55;19.00;;;11.50;;
3133;SDS011;1577;49.912;10.924;2024-03-08T10:56:23;18.90;;;11.37;;
3133;SDS011;1577;49.912;10.924;2024-03-08T10:58:52;17.30;;;10.63;;
3133;SDS011;1577;49.912;10.924;2024-03-08T11:01:18;16.87;;;11.63;;
3133;SDS011;1577;49.912;10.924;2024-03-08T11:03:43;17.33;;;10.70;;
3133;SDS011;1577;49.912;10.924;2024-03-08T11:08:54;21.17;;;11.67;;
3133;SDS011;1577;49.912;10.924;2024-03-08T11:11:29;18.30;;;10.80;;
3133;SDS011;1577;49.912;10.924;2024-03-08T11:13:57;19.77;;;10.43;;
3133;SDS011;1577;49.912;10.924;2024-03-08T11:18:59;15.57;;;8.93;;
3133;SDS011;1577;49.912;10.924;2024-03-08T11:21:35;14.10;;;9.97;;
3133;SDS011;1577;49.912;10.924;2024-03-08T11:24:08;16.50;;;10.37;;
3133;SDS011;1577;49.912;10.924;2024-03-08T11:26:41;18.77;;;10.33;;
3133;SDS011;1577;49.912;10.924;2024-03-08T11:34:53;19.13;;;10.83;;
3133;SDS011;1577;49.912;10.924;2024-03-08T11:37:19;21.43;;;12.27;;
3133;SDS011;1577;49.912;10.924;2024-03-08T11:39:49;18.97;;;10.77;;
3133;SDS011;1577;49.912;10.924;2024-03-08T11:42:19;19.97;;;12.77;;
3133;SDS011;1577;49.912;10.924;2024-03-08T11:44:48;16.60;;;10.40;;
3133;SDS011;1577;49.912;10.924;2024-03-08T11:47:16;23.60;;;12.70;;
3133;SDS011;1577;49.912;10.924;2024-03-08T11:49:41;22.27;;;13.87;;
3133;SDS011;1577;49.912;10.924;2024-03-08T11:52:13;20.87;;;12.03;;
3133;SDS011;1577;49.912;10.924;2024-03-08T11:54:43;19.87;;;11.63;;
3133;SDS011;1577;49.912;10.924;2024-03-08T11:57:22;16.60;;;9.90;;
3133;SDS011;1577;49.912;10.924;2024-03-08T11:59:54;18.40;;;10.33;;
3133;SDS011;1577;49.912;10.924;2024-03-08T12:02:31;20.50;;;11.70;;
3133;SDS011;1577;49.912;10.924;2024-03-08T12:05:06;15.93;;;11.23;;
3133;SDS011;1577;49.912;10.924;2024-03-08T12:07:34;20.53;;;12.07;;
3133;SDS011;1577;49.912;10.924;2024-03-08T12:12:44;20.90;;;13.40;;
3133;SDS011;1577;49.912;10.924;2024-03-08T12:15:11;17.00;;;10.90;;
3133;SDS011;1577;49.912;10.924;2024-03-08T12:17:37;22.73;;;10.50;;
3133;SDS011;1577;49.912;10.924;2024-03-08T12:20:20;19.27;;;10.60;;
3133;SDS011;1577;49.912;10.924;2024-03-08T12:22:55;19.20;;;12.30;;
3133;SDS011;1577;49.912;10.924;2024-03-08T12:25:41;15.63;;;10.30;;
3133;SDS011;1577;49.912;10.924;2024-03-08T12:28:10;17.37;;;9.97;;
3133;SDS011;1577;49.912;10.924;2024-03-08T12:30:48;18.10;;;10.77;;
3133;SDS011;1577;49.912;10.924;2024-03-08T12:33:16;18.90;;;10.57;;
3133;SDS011;1577;49.912;10.924;2024-03-08T12:35:49;11.83;;;7.17;;
3133;SDS011;1577;49.912;10.924;2024-03-08T12:38:19;15.90;;;10.57;;
3133;SDS011;1577;49.912;10.924;2024-03-08T12:40:50;17.07;;;10.20;;
3133;SDS011;1577;49.912;10.924;2024-03-08T12:43:19;15.30;;;9.70;;
3133;SDS011;1577;49.912;10.924;2024-03-08T12:45:45;17.03;;;10.83;;
3133;SDS011;1577;49.912;10.924;2024-03-08T12:48:14;16.37;;;11.20;;
3133;SDS011;1577;49.912;10.924;2024-03-08T12:50:41;18.40;;;9.50;;
3133;SDS011;1577;49.912;10.924;2024-03-08T12:53:10;13.27;;;9.17;;
3133;SDS011;1577;49.912;10.924;2024-03-08T12:55:36;15.23;;;10.30;;
3133;SDS011;1577;49.912;10.924;2024-03-08T12:58:01;15.73;;;9.30;;
3133;SDS011;1577;49.912;10.924;2024-03-08T13:00:27;12.10;;;8.40;;
3133;SDS011;1577;49.912;10.924;2024-03-08T13:02:53;17.47;;;9.17;;
3133;SDS011;1577;49.912;10.924;2024-03-08T13:05:20;15.33;;;9.30;;
3133;SDS011;1577;49.912;10.924;2024-03-08T13:07:46;12.93;;;8.83;;
3133;SDS011;1577;49.912;10.924;2024-03-08T13:10:12;16.40;;;9.23;;
3133;SDS011;1577;49.912;10.924;2024-03-08T13:12:40;11.53;;;8.47;;
3133;SDS011;1577;49.912;10.924;2024-03-08T13:15:09;10.77;;;7.47;;
3133;SDS011;1577;49.912;10.924;2024-03-08T13:17:40;15.67;;;7.77;;
3133;SDS011;1577;49.912;10.924;2024-03-08T13:20:07;13.47;;;8.20;;
3133;SDS011;1577;49.912;10.924;2024-03-08T13:22:33;10.27;;;7.13;;
3133;SDS011;1577;49.912;10.924;2024-03-08T13:24:59;8.70;;;6.60;;
3133;SDS011;1577;49.912;10.924;2024-03-08T13:27:28;11.33;;;7.03;;
3133;SDS011;1577;49.912;10.924;2024-03-08T13:29:54;12.37;;;6.93;;
3133;SDS011;1577;49.912;10.924;2024-03-08T13:32:19;10.80;;;7.00;;
3133;SDS011;1577;49.912;10.924;2024-03-08T13:34:49;11.80;;;7.97;;
3133;SDS011;1577;49.912;10.924;2024-03-08T13:37:15;11.87;;;7.47;;
3133;SDS011;1577;49.912;10.924;2024-03-08T13:39:41;10.67;;;7.70;;
3133;SDS011;1577;49.912;10.924;2024-03-08T13:42:13;12.03;;;7.97;;
3133;SDS011;1577;49.912;10.924;2024-03-08T13:44:44;11.90;;;6.77;;
3133;SDS011;1577;49.912;10.924;2024-03-08T13:47:16;11.73;;;7.73;;
3133;SDS011;1577;49.912;10.924;2024-03-08T13:49:42;8.90;;;6.03;;
3133;SDS011;1577;49.912;10.924;2024-03-08T13:52:11;9.63;;;6.53;;
3133;SDS011;1577;49.912;10.924;2024-03-08T13:54:41;11.03;;;5.20;;
3133;SDS011;1577;49.912;10.924;2024-03-08T13:57:07;11.23;;;7.30;;
3133;SDS011;1577;49.912;10.924;2024-03-08T13:59:33;10.20;;;5.73;;
3133;SDS011;1577;49.912;10.924;2024-03-08T14:02:00;13.57;;;6.60;;
3133;SDS011;1577;49.912;10.924;2024-03-08T14:04:27;9.03;;;6.50;;
3133;SDS011;1577;49.912;10.924;2024-03-08T14:06:53;10.77;;;7.17;;
3133;SDS011;1577;49.912;10.924;2024-03-08T14:09:26;10.17;;;6.83;;
3133;SDS011;1577;49.912;10.924;2024-03-08T14:11:53;8.43;;;6.60;;
3133;SDS011;1577;49.912;10.924;2024-03-08T14:14:23;9.70;;;7.17;;
3133;SDS011;1577;49.912;10.924;2024-03-08T14:16:49;13.00;;;7.60;;
3133;SDS011;1577;49.912;10.924;2024-03-08T14:19:19;12.50;;;8.03;;
3133;SDS011;1577;49.912;10.924;2024-03-08T14:21:45;9.97;;;7.17;;
3133;SDS011;1577;49.912;10.924;2024-03-08T14:24:13;12.53;;;7.70;;
3133;SDS011;1577;49.912;10.924;2024-03-08T14:26:42;12.13;;;7.90;;
3133;SDS011;1577;49.912;10.924;2024-03-08T14:29:07;9.70;;;7.63;;
3133;SDS011;1577;49.912;10.924;2024-03-08T14:31:35;10.13;;;5.07;;
3133;SDS011;1577;49.912;10.924;2024-03-08T14:34:01;11.30;;;6.87;;
3133;SDS011;1577;49.912;10.924;2024-03-08T14:36:28;13.43;;;6.03;;
3133;SDS011;1577;49.912;10.924;2024-03-08T14:38:54;8.10;;;5.03;;
3133;SDS011;1577;49.912;10.924;2024-03-08T14:41:20;7.67;;;5.17;;
3133;SDS011;1577;49.912;10.924;2024-03-08T14:43:47;9.07;;;5.93;;
3133;SDS011;1577;49.912;10.924;2024-03-08T14:46:13;7.20;;;5.23;;
3133;SDS011;1577;49.912;10.924;2024-03-08T14:48:42;8.37;;;5.40;;
3133;SDS011;1577;49.912;10.924;2024-03-08T14:51:09;8.70;;;5.17;;
3133;SDS011;1577;49.912;10.924;2024-03-08T14:53:36;8.70;;;3.60;;
3133;SDS011;1577;49.912;10.924;2024-03-08T14:56:06;7.37;;;5.30;;
3133;SDS011;1577;49.912;10.924;2024-03-08T14:58:34;7.27;;;5.23;;